Terminal Aerodrome Forecast
Issued by NWS

Current Version | Previous Version | Text Only | Print | Product List | Glossary Off
Versions: 1 2 3 4 5 6 7 8 9 10 11 12 13 14 15 16 17 18 19

000
FTUS41 KILN 181100
TAFLUK
TAF
KLUK 181124Z 1812/1912 28012KT P6SM OVC025
     FM181900 31012G22KT P6SM VCSH OVC025
     FM182300 32010G18KT P6SM OVC022
      TEMPO 1902/1905 33008KT SCT022
     FM190500 34006KT P6SM SCT022
      TEMPO 1905/1909 BKN020
     FM191000 00000KT P6SM SKC=

USA.gov is the U.S. government's official web portal to all federal, state and local government web resources and services.